Porterville, CA

5:19 PM PDT on September 19, 2014 (GMT -0700)
Orchard Ridge | Change Station
CLOSE
Current Station
Personal Weather Station
Location: Porterville, CA
Elevation: 423 ft
Nearby Weather Stations

Elev 423 ft 36.09 °N, 119.06 °W | Updated 14 seconds ago

Clear
Clear
88.1 °F
Feels Like 88 °F
N
3.5
Wind Variable Wind from WNW
Gusts 3.5 mph

Today
High -- | Low -- °F
--% Chance of Precip.
Yesterday
High -- | Low -- °F
Precip. -- in
6:41 AM 6:57 PM
Waning Crescent, 16% visible
Pressure 29.81 in
Visibility 10.0 miles
Clouds Clear
Heat Index 88 °F
Dew Point 61 °F
Humidity 40%
Rainfall 0.00 in
Snow Depth 0 in , 0 in , 0 in
UV 2 out of 12
Pollen 6.60 out of 12
Ozone Good
PM2.5 Moderate
Flu Activity Not available.
METAR KPTV 192355Z 32008KT 10SM CLR 31/14 A2981 RMK AO1 10310 20240 403100170 57014

More Conditions Fewer Conditions

Pressure 29.81 in
Visibility 10.0 miles
Clouds Clear
Heat Index 88 °F
Dew Point 61 °F
Humidity 40%
Rainfall 0.00 in
Snow Depth 0 in , 0 in , 0 in
UV 2 out of 12
Pollen 6.60 out of 12
Ozone Good
PM2.5 Moderate
Flu Activity Not available.
METAR KPTV 192355Z 32008KT 10SM CLR 31/14 A2981 RMK AO1 10310 20240 403100170 57014

More Conditions Fewer Conditions

10-Day Weather Forecast

Almanac

Astronomy

Sep. 19, 2014 Rise Set
Actual Time 6:41 AM PDT 6:57 PM PDT
Civil Twilight 6:16 AM PDT 7:22 PM PDT
Nautical Twilight 5:46 AM PDT 7:52 PM PDT
Astronomical Twilight 5:15 AM PDT 8:23 PM PDT
Moon 2:37 AM PDT (9/19) 4:23 PM PDT (9/19)
Length of Visible Light 13h 06m
Length of Day
12h 15m
Tomorrow will be 2m 15s shorter.
Waning Crescent, 16% of the Moon is Illuminated
Today
Waning Crescent
Sep 24
New
Oct 1
First Quarter
Oct 8
Full
Oct 15
Last Quarter

Today's Extremes

State Highs State Lows

Community

WunderPhotos

Upload Photos

1,754,734 photos uploaded!

WunderBlogs® & News

Nearby

Air Quality

  Air Quality AQ Index Pollutant
Yesterday Good
OZONE
Yesterday Good
PM2.5
Current Moderate
PM2.5
Current Good
OZONE
Friday Good
OZONE
Saturday Moderate
PM2.5
Sunday Moderate
PM2.5
Monday Moderate
PM2.5
Tuesday Moderate
PM2.5
Wednesday Moderate
PM2.5

Snow Depth

Station Depth Elevation
Adin Mountain 1 in 6200 ft
Echo Peak 0 in 7800 ft
Tahoe City Cross 0 in 6750 ft
Spratt Creek 0 in 6200 ft
Rubicon #2 0 in 7500 ft

Earthquake Activity

City Distance Mag. Time & Date
Corcoran, California 37 miles 3.0 3:59 PM PDT
2014-09-18
Minimum magnitude displayed is 2.5.

Coastal Water Temperatures

Place Temperature
No Stations Reporting

Nearby Weather Stations